Westhampton Beach, New York
Current Conditions -  °F | °C
As of 11:26 PM on Tuesday 27 Jan 2015 (Local Time) from KFOK Reporting Station
Light Snow Light Snow  
Wind Chill: -17°   Ceiling: 1300
Heat Index: -9°   Visibility: 1mi
Dew Point: -13°   Wind: 14mph
Humidity: 74%   Direction: 320°NW
Pressure: 29.78"   Gusts: 24mph
Location:  40.8°N, 72.61°W
Report Text: KFOK 280426Z 32012G21KT 1SM -SN VV013 M09/M13 A2978 RMK AO2 P0000 T10891128 $
Loading
Personal Weather Stations






























Interactive Weather Map New forecast layout! Learn more

10-Day Weather Forecast

Advertisements
Track Severe Weather on mobile